Time;durP1;ratioP1;P1;durP2;ratioP2;P2;SDS_P1;SDS_P2;PMS_P1;PMS_P2;Temp;Humidity;BMP_temperature;BMP_pressure;BME280_temperature;BME280_humidity;BME280_pressure;Samples;Min_cycle;Max_cycle;Signal;HPM_P1;HPM_P2
2023/12/10 00:02:19;;;;;;;;;;;7.60;99.90;;;;;;5003790;28;19979;-92
2023/12/10 00:04:45;;;;;;;;;;;7.60;99.90;;;;;;5004898;28;19929;-91
2023/12/10 00:07:11;;;;;;;;;;;7.50;99.90;;;;;;5036316;28;19920;-91
2023/12/10 00:09:37;;;;;;;;;;;7.50;99.90;;;;;;5019773;28;19920;-96
2023/12/10 00:12:03;;;;;;;;;;;7.50;99.90;;;;;;5018289;28;19921;-91
2023/12/10 00:14:29;;;;;;;;;;;7.50;99.90;;;;;;5019272;28;20368;-92
2023/12/10 00:16:58;;;;;;;;;;;7.50;99.90;;;;;;4999324;28;20001;-93
2023/12/10 00:19:24;;;;;;;;;;;7.40;99.90;;;;;;5037020;28;20334;-93
2023/12/10 00:21:49;;;;;;;;;;;7.50;99.90;;;;;;5031625;28;20019;-92
2023/12/10 00:24:15;;;;;;;;;;;7.50;99.90;;;;;;5003289;28;20041;-91
2023/12/10 00:26:41;;;;;;;;;;;7.60;99.90;;;;;;5006546;28;19921;-92
2023/12/10 00:29:06;;;;;;;;;;;7.60;99.90;;;;;;5023292;28;19932;-92
2023/12/10 00:31:32;;;;;;;;;;;7.60;99.90;;;;;;5017526;28;20426;-92
2023/12/10 00:33:58;;;;;;;;;;;7.60;99.90;;;;;;5036142;28;19928;-92
2023/12/10 00:36:24;;;;;;;;;;;7.60;99.90;;;;;;5014489;28;19925;-90
2023/12/10 00:38:49;;;;;;;;;;;7.60;99.90;;;;;;5034328;28;19927;-93
2023/12/10 00:41:15;;;;;;;;;;;7.50;99.90;;;;;;5035988;28;19955;-94
2023/12/10 00:43:41;;;;;;;;;;;7.60;99.90;;;;;;5007461;28;19975;-90
2023/12/10 00:46:07;;;;;;;;;;;7.60;99.90;;;;;;5030781;28;19928;-92
2023/12/10 00:48:40;;;;;;;;;;;7.60;99.90;;;;;;5033614;28;19928;-91
2023/12/10 00:51:06;;;;;;;;;;;7.60;99.90;;;;;;5009289;28;19924;-92
2023/12/10 00:53:32;;;;;;;;;;;7.50;99.90;;;;;;5030860;28;19929;-92
2023/12/10 00:55:58;;;;;;;;;;;7.60;99.90;;;;;;5033473;28;19921;-91
2023/12/10 00:58:23;;;;;;;;;;;7.60;99.90;;;;;;5036609;28;20011;-93
2023/12/10 01:00:49;;;;;;;;;;;7.60;99.90;;;;;;5030184;28;19924;-88
2023/12/10 01:03:15;;;;;;;;;;;7.60;99.90;;;;;;5051081;28;19932;-92
2023/12/10 01:05:40;;;;;;;;;;;7.60;99.90;;;;;;5014193;28;19921;-92
2023/12/10 01:08:06;;;;;;;;;;;7.60;99.90;;;;;;5042569;28;20015;-90
2023/12/10 01:10:32;;;;;;;;;;;7.60;99.90;;;;;;5016569;28;20054;-90
2023/12/10 01:12:57;;;;;;;;;;;7.60;99.90;;;;;;5030639;28;19928;-96
2023/12/10 01:15:32;;;;;;;;;;;7.60;99.90;;;;;;5034682;28;19931;-95
2023/12/10 01:18:00;;;;;;;;;;;7.60;99.90;;;;;;5034010;28;19921;-93
2023/12/10 01:20:29;;;;;;;;;;;7.50;99.90;;;;;;5030809;28;19925;-94
2023/12/10 01:22:54;;;;;;;;;;;7.50;99.90;;;;;;5029002;28;19929;-95
2023/12/10 01:25:20;;;;;;;;;;;7.50;99.90;;;;;;5030068;28;19921;-92
2023/12/10 01:27:46;;;;;;;;;;;7.50;99.90;;;;;;4998934;28;19929;-92
2023/12/10 01:30:11;;;;;;;;;;;7.40;99.90;;;;;;5027806;28;19954;-92
2023/12/10 01:32:37;;;;;;;;;;;7.40;99.90;;;;;;5037822;28;19935;-91
2023/12/10 01:35:04;;;;;;;;;;;7.40;99.90;;;;;;5021802;28;19981;-92
2023/12/10 01:37:29;;;;;;;;;;;7.40;99.90;;;;;;5023978;28;19971;-93
2023/12/10 01:39:55;;;;;;;;;;;7.30;99.90;;;;;;5038093;28;20295;-91
2023/12/10 01:42:21;;;;;;;;;;;6.90;99.90;;;;;;5021497;28;19929;-90
2023/12/10 01:44:47;;;;;;;;;;;7.30;99.90;;;;;;5022121;28;19920;-91
2023/12/10 01:47:13;;;;;;;;;;;7.30;99.90;;;;;;5016390;28;19921;-93
2023/12/10 01:49:39;;;;;;;;;;;7.30;99.90;;;;;;5051600;28;19981;-92
2023/12/10 01:52:05;;;;;;;;;;;7.30;99.90;;;;;;5031737;28;19920;-94
2023/12/10 01:54:30;;;;;;;;;;;7.30;99.90;;;;;;5052936;28;19920;-89
2023/12/10 01:56:57;;;;;;;;;;;7.30;99.90;;;;;;5032932;28;19943;-91
2023/12/10 01:59:23;;;;;;;;;;;7.30;99.90;;;;;;5032637;28;19927;-95
2023/12/10 02:01:50;;;;;;;;;;;7.30;99.90;;;;;;5038341;28;19924;-91
2023/12/10 02:04:16;;;;;;;;;;;7.40;99.90;;;;;;5049848;28;19986;-92
2023/12/10 02:06:42;;;;;;;;;;;7.20;99.90;;;;;;5036870;28;20387;-91
2023/12/10 02:09:13;;;;;;;;;;;7.30;99.90;;;;;;5049443;28;19964;-93
2023/12/10 02:11:39;;;;;;;;;;;7.20;99.90;;;;;;5052293;28;20300;-91
2023/12/10 02:14:04;;;;;;;;;;;7.30;99.90;;;;;;5051661;28;19966;-92
2023/12/10 02:16:30;;;;;;;;;;;7.20;99.90;;;;;;5037305;28;19975;-92
2023/12/10 02:18:56;;;;;;;;;;;7.20;99.90;;;;;;5036649;28;20683;-91
2023/12/10 02:21:21;;;;;;;;;;;7.30;99.90;;;;;;5037768;28;19927;-93
2023/12/10 02:23:51;;;;;;;;;;;7.30;99.90;;;;;;5033978;28;19925;-92
2023/12/10 02:26:16;;;;;;;;;;;7.20;99.90;;;;;;5055887;28;19920;-92
2023/12/10 02:28:42;;;;;;;;;;;7.20;99.90;;;;;;5014190;28;19974;-91
2023/12/10 02:31:08;;;;;;;;;;;7.20;99.90;;;;;;5008482;28;20023;-89
2023/12/10 02:33:34;;;;;;;;;;;7.20;99.90;;;;;;5017055;28;20356;-92
2023/12/10 02:35:59;;;;;;;;;;;7.30;99.90;;;;;;5000059;28;20413;-93
2023/12/10 02:38:25;;;;;;;;;;;7.30;99.90;;;;;;5002637;28;19932;-92
2023/12/10 02:40:51;;;;;;;;;;;7.20;99.90;;;;;;4990526;28;19920;-93
2023/12/10 02:43:17;;;;;;;;;;;7.30;99.90;;;;;;5016922;28;20314;-94
2023/12/10 02:45:43;;;;;;;;;;;7.30;99.90;;;;;;5017049;28;20268;-91
2023/12/10 02:48:09;;;;;;;;;;;7.30;99.90;;;;;;5007487;28;19925;-94
2023/12/10 02:50:34;;;;;;;;;;;7.30;99.90;;;;;;5021880;28;19927;-93
2023/12/10 02:53:00;;;;;;;;;;;7.30;99.90;;;;;;5021768;28;19921;-92
2023/12/10 02:55:26;;;;;;;;;;;7.30;99.90;;;;;;5019688;28;19924;-91
2023/12/10 02:57:51;;;;;;;;;;;7.30;99.90;;;;;;5005511;28;19920;-92
2023/12/10 03:00:17;;;;;;;;;;;7.30;99.90;;;;;;5023598;28;19950;-92
2023/12/10 03:02:43;;;;;;;;;;;7.20;99.90;;;;;;5027276;28;20392;-91
2023/12/10 03:05:08;;;;;;;;;;;7.30;99.90;;;;;;5004789;28;20414;-92
2023/12/10 03:07:34;;;;;;;;;;;7.30;99.90;;;;;;5002218;28;20043;-89
2023/12/10 03:10:00;;;;;;;;;;;7.30;99.90;;;;;;5030870;28;19920;-92
2023/12/10 03:12:25;;;;;;;;;;;7.20;99.90;;;;;;5005050;28;19931;-92
2023/12/10 03:14:51;;;;;;;;;;;7.30;99.90;;;;;;5040775;28;19928;-86
2023/12/10 03:17:17;;;;;;;;;;;7.20;99.90;;;;;;5027423;28;19962;-92
2023/12/10 03:19:44;;;;;;;;;;;7.20;99.90;;;;;;5004521;28;20388;-94
2023/12/10 03:22:09;;;;;;;;;;;7.20;99.90;;;;;;5037078;28;20058;-92
2023/12/10 03:24:35;;;;;;;;;;;7.20;99.90;;;;;;5036551;28;20019;-91
2023/12/10 03:27:01;;;;;;;;;;;7.20;99.90;;;;;;5020669;28;19971;-90
2023/12/10 03:29:26;;;;;;;;;;;7.20;99.90;;;;;;5034399;28;19928;-87
2023/12/10 03:31:52;;;;;;;;;;;7.20;99.90;;;;;;5038004;28;19920;-90
2023/12/10 03:34:17;;;;;;;;;;;7.20;99.90;;;;;;5023785;28;19920;-95
2023/12/10 03:36:43;;;;;;;;;;;7.20;99.90;;;;;;5041092;28;19971;-92
2023/12/10 03:39:09;;;;;;;;;;;7.20;99.90;;;;;;5039780;28;19925;-91
2023/12/10 03:41:34;;;;;;;;;;;7.20;99.90;;;;;;5041012;28;19928;-91
2023/12/10 03:44:00;;;;;;;;;;;7.20;99.90;;;;;;5023285;28;19939;-87
2023/12/10 03:46:25;;;;;;;;;;;7.20;99.90;;;;;;5039891;28;20299;-89
2023/12/10 03:48:51;;;;;;;;;;;7.20;99.90;;;;;;5023876;28;19920;-89
2023/12/10 03:51:17;;;;;;;;;;;7.20;99.90;;;;;;5039604;28;19943;-91
2023/12/10 03:53:43;;;;;;;;;;;7.20;99.90;;;;;;5039831;28;19921;-92
2023/12/10 03:56:09;;;;;;;;;;;7.20;99.90;;;;;;5039112;28;20341;-88
2023/12/10 03:58:35;;;;;;;;;;;7.20;99.90;;;;;;5072675;28;19964;-89
2023/12/10 04:01:01;;;;;;;;;;;7.20;99.90;;;;;;5037436;28;19921;-92
2023/12/10 04:03:27;;;;;;;;;;;7.20;99.90;;;;;;5022762;28;20498;-92
2023/12/10 04:05:52;;;;;;;;;;;7.20;99.90;;;;;;5039939;28;19921;-90
2023/12/10 04:08:18;;;;;;;;;;;7.20;99.90;;;;;;5023717;28;19979;-90
2023/12/10 04:10:44;;;;;;;;;;;7.20;99.90;;;;;;5039413;28;19924;-91
2023/12/10 04:13:09;;;;;;;;;;;7.20;99.90;;;;;;5022768;28;19931;-89
2023/12/10 04:15:35;;;;;;;;;;;7.20;99.90;;;;;;5055332;28;19924;-88
2023/12/10 04:18:01;;;;;;;;;;;7.20;99.90;;;;;;5023218;28;19965;-88
2023/12/10 04:20:26;;;;;;;;;;;7.20;99.90;;;;;;5037370;28;20303;-87
2023/12/10 04:22:52;;;;;;;;;;;7.20;99.90;;;;;;5014828;28;19928;-92
2023/12/10 04:25:17;;;;;;;;;;;7.20;99.90;;;;;;5038097;28;19927;-87
2023/12/10 04:27:43;;;;;;;;;;;7.20;99.90;;;;;;5013280;28;19920;-86
2023/12/10 04:30:09;;;;;;;;;;;7.20;99.90;;;;;;5035340;28;19968;-88
2023/12/10 04:32:34;;;;;;;;;;;7.20;99.90;;;;;;5035156;28;20552;-89
2023/12/10 04:35:00;;;;;;;;;;;7.20;99.90;;;;;;5039541;28;19924;-89
2023/12/10 04:37:26;;;;;;;;;;;7.30;99.90;;;;;;5021119;28;19959;-93
2023/12/10 04:39:53;;;;;;;;;;;7.30;99.90;;;;;;5038924;28;19972;-91
2023/12/10 04:42:18;;;;;;;;;;;7.30;99.90;;;;;;5019946;28;20398;-87
2023/12/10 04:44:44;;;;;;;;;;;7.30;99.90;;;;;;5037614;28;20152;-88
2023/12/10 04:47:09;;;;;;;;;;;7.30;99.90;;;;;;5019879;28;19921;-88
2023/12/10 04:49:35;;;;;;;;;;;7.30;99.90;;;;;;5037979;28;19928;-87
2023/12/10 04:52:01;;;;;;;;;;;7.40;99.90;;;;;;5017951;28;19973;-86
2023/12/10 04:54:26;;;;;;;;;;;7.40;99.90;;;;;;5035889;28;19921;-92
2023/12/10 04:56:52;;;;;;;;;;;7.40;99.90;;;;;;5033924;28;19921;-90
2023/12/10 04:59:21;;;;;;;;;;;7.50;99.90;;;;;;5037095;28;19956;-87
2023/12/10 05:01:46;;;;;;;;;;;7.50;99.90;;;;;;5066851;28;20693;-87
2023/12/10 05:04:12;;;;;;;;;;;7.50;99.90;;;;;;5036990;28;19968;-86
2023/12/10 05:06:37;;;;;;;;;;;7.50;99.90;;;;;;5019210;28;19928;-87
2023/12/10 05:09:03;;;;;;;;;;;7.60;99.90;;;;;;5033275;28;19931;-87
2023/12/10 05:11:29;;;;;;;;;;;7.60;99.90;;;;;;5033657;28;20363;-91
2023/12/10 05:13:55;;;;;;;;;;;7.10;99.90;;;;;;5040240;28;20471;-90
2023/12/10 05:16:20;;;;;;;;;;;7.70;99.90;;;;;;5023325;28;19924;-89
2023/12/10 05:18:46;;;;;;;;;;;7.70;99.90;;;;;;5036374;28;19920;-90
2023/12/10 05:21:12;;;;;;;;;;;7.70;99.90;;;;;;5033253;28;20229;-88
2023/12/10 05:23:37;;;;;;;;;;;7.70;99.90;;;;;;5015395;28;19925;-91
2023/12/10 05:26:03;;;;;;;;;;;7.80;99.90;;;;;;5037848;28;19924;-91
2023/12/10 05:28:29;;;;;;;;;;;7.70;99.90;;;;;;5038251;28;19947;-91
2023/12/10 05:30:54;;;;;;;;;;;7.80;99.90;;;;;;5021199;28;20007;-85
2023/12/10 05:33:20;;;;;;;;;;;7.80;99.90;;;;;;5054520;28;19927;-91
2023/12/10 05:35:46;;;;;;;;;;;7.80;99.90;;;;;;5053374;28;20007;-91
2023/12/10 05:38:11;;;;;;;;;;;7.80;99.90;;;;;;5038171;28;19921;-90
2023/12/10 05:40:37;;;;;;;;;;;7.80;99.90;;;;;;5021278;28;19927;-89
2023/12/10 05:43:03;;;;;;;;;;;7.80;99.90;;;;;;5038234;28;19929;-90
2023/12/10 05:45:29;;;;;;;;;;;7.80;99.90;;;;;;5037499;28;19947;-90
2023/12/10 05:47:55;;;;;;;;;;;7.80;99.90;;;;;;5038401;28;20610;-92
2023/12/10 05:50:20;;;;;;;;;;;7.80;99.90;;;;;;5037351;28;19990;-88
2023/12/10 05:52:46;;;;;;;;;;;7.80;99.90;;;;;;5040800;28;19920;-92
2023/12/10 05:55:11;;;;;;;;;;;7.50;99.90;;;;;;5021176;28;19928;-88
2023/12/10 05:57:37;;;;;;;;;;;7.80;99.90;;;;;;5054632;28;19931;-93
2023/12/10 06:00:04;;;;;;;;;;;7.90;99.90;;;;;;5038260;28;19920;-90
2023/12/10 06:02:30;;;;;;;;;;;7.80;99.90;;;;;;5037381;28;19924;-92
2023/12/10 06:04:55;;;;;;;;;;;7.80;99.90;;;;;;5033403;28;19951;-91
2023/12/10 06:07:21;;;;;;;;;;;7.80;99.90;;;;;;5036960;28;19924;-91
2023/12/10 06:09:47;;;;;;;;;;;7.80;99.90;;;;;;5036718;28;19920;-90
2023/12/10 06:12:12;;;;;;;;;;;7.80;99.90;;;;;;5036416;28;19967;-87
2023/12/10 06:14:38;;;;;;;;;;;7.80;99.90;;;;;;5036491;28;19924;-88
2023/12/10 06:17:04;;;;;;;;;;;7.80;99.90;;;;;;5036538;28;20276;-92
2023/12/10 06:19:29;;;;;;;;;;;7.80;99.90;;;;;;5052138;28;19927;-92
2023/12/10 06:21:55;;;;;;;;;;;7.80;99.90;;;;;;5052229;28;20015;-87
2023/12/10 06:24:20;;;;;;;;;;;7.90;99.90;;;;;;5019287;28;19920;-89
2023/12/10 06:26:46;;;;;;;;;;;7.90;99.90;;;;;;5036996;28;19943;-90
2023/12/10 06:29:12;;;;;;;;;;;7.90;99.90;;;;;;5022439;28;20279;-89
2023/12/10 06:31:37;;;;;;;;;;;7.90;99.90;;;;;;5051069;28;19943;-92
2023/12/10 06:34:03;;;;;;;;;;;7.90;99.90;;;;;;5035794;28;20011;-89
2023/12/10 06:36:29;;;;;;;;;;;7.90;99.90;;;;;;5035362;28;19931;-88
2023/12/10 06:38:54;;;;;;;;;;;8.00;99.90;;;;;;5046346;28;19924;-92
2023/12/10 06:41:20;;;;;;;;;;;8.00;99.90;;;;;;5037115;28;19926;-92
2023/12/10 06:43:46;;;;;;;;;;;8.00;99.90;;;;;;5036542;28;20050;-86
2023/12/10 06:46:13;;;;;;;;;;;8.00;99.90;;;;;;5036056;28;19964;-87
2023/12/10 06:48:39;;;;;;;;;;;;;;;;;;5020524;28;19964;-87
2023/12/10 06:51:04;;;;;;;;;;;8.10;99.90;;;;;;5036552;28;20050;-90
2023/12/10 06:53:31;;;;;;;;;;;8.10;99.90;;;;;;5035873;28;20298;-89
2023/12/10 06:55:58;;;;;;;;;;;8.10;99.90;;;;;;5051228;28;19934;-88
2023/12/10 06:58:23;;;;;;;;;;;8.10;99.90;;;;;;5035881;28;20015;-92
2023/12/10 07:00:50;;;;;;;;;;;8.20;99.90;;;;;;5035989;28;20463;-89
2023/12/10 07:03:15;;;;;;;;;;;8.20;99.90;;;;;;5015821;28;19932;-92
2023/12/10 07:05:41;;;;;;;;;;;8.20;99.90;;;;;;5014851;28;19921;-89
2023/12/10 07:08:06;;;;;;;;;;;8.20;99.90;;;;;;5035357;28;19990;-87
2023/12/10 07:10:32;;;;;;;;;;;8.20;99.90;;;;;;5029332;28;19920;-88
2023/12/10 07:12:58;;;;;;;;;;;8.20;99.90;;;;;;5035168;28;19967;-89
2023/12/10 07:15:23;;;;;;;;;;;8.20;99.90;;;;;;5035176;28;19932;-88
2023/12/10 07:17:49;;;;;;;;;;;8.20;99.90;;;;;;5036263;28;20015;-86
2023/12/10 07:20:15;;;;;;;;;;;8.20;99.90;;;;;;5035294;28;19921;-89
2023/12/10 07:22:41;;;;;;;;;;;8.10;99.90;;;;;;5018923;28;19974;-87
2023/12/10 07:25:07;;;;;;;;;;;8.10;99.90;;;;;;5035439;28;20256;-86
2023/12/10 07:27:32;;;;;;;;;;;8.20;99.90;;;;;;5019400;28;19949;-85
2023/12/10 07:29:58;;;;;;;;;;;8.20;99.90;;;;;;5035482;28;20040;-90
2023/12/10 07:32:24;;;;;;;;;;;8.20;99.90;;;;;;5021460;28;19924;-89
2023/12/10 07:34:50;;;;;;;;;;;8.20;99.90;;;;;;5049772;28;20025;-90
2023/12/10 07:37:15;;;;;;;;;;;8.20;99.90;;;;;;5033919;28;19928;-87
2023/12/10 07:39:42;;;;;;;;;;;8.20;99.90;;;;;;5039698;28;19921;-87
2023/12/10 07:42:07;;;;;;;;;;;8.20;99.90;;;;;;5055354;28;19939;-89
2023/12/10 07:44:33;;;;;;;;;;;8.30;99.90;;;;;;5039067;28;20141;-90
2023/12/10 07:46:59;;;;;;;;;;;8.30;99.90;;;;;;5019282;28;19924;-88
2023/12/10 07:49:24;;;;;;;;;;;8.30;99.90;;;;;;5052413;28;19933;-89
2023/12/10 07:51:50;;;;;;;;;;;8.30;99.90;;;;;;5037377;28;19947;-87
2023/12/10 07:54:16;;;;;;;;;;;8.30;99.90;;;;;;5032225;28;19928;-91
2023/12/10 07:56:41;;;;;;;;;;;8.40;99.90;;;;;;5018882;28;19979;-90
2023/12/10 07:59:07;;;;;;;;;;;8.30;99.90;;;;;;5017361;28;20035;-89
2023/12/10 08:01:32;;;;;;;;;;;8.30;99.90;;;;;;5015996;28;19924;-91
2023/12/10 08:03:58;;;;;;;;;;;8.30;99.90;;;;;;5023566;28;19933;-90
2023/12/10 08:06:24;;;;;;;;;;;8.30;99.90;;;;;;5021587;28;20287;-91
2023/12/10 08:08:50;;;;;;;;;;;8.30;99.90;;;;;;5038890;28;19921;-90
2023/12/10 08:11:16;;;;;;;;;;;8.30;99.90;;;;;;5041606;28;19924;-90
2023/12/10 08:13:42;;;;;;;;;;;8.30;99.90;;;;;;5035829;28;19971;-89
2023/12/10 08:16:07;;;;;;;;;;;8.30;99.90;;;;;;5039427;28;20020;-87
2023/12/10 08:18:33;;;;;;;;;;;8.20;99.90;;;;;;5036179;28;19928;-90
2023/12/10 08:21:01;;;;;;;;;;;8.20;99.90;;;;;;5020302;28;19925;-87
2023/12/10 08:23:26;;;;;;;;;;;8.20;99.90;;;;;;5035398;28;20003;-92
2023/12/10 08:25:52;;;;;;;;;;;8.20;99.90;;;;;;5017852;28;19947;-89
2023/12/10 08:28:18;;;;;;;;;;;8.20;99.90;;;;;;5036459;28;20283;-88
2023/12/10 08:30:43;;;;;;;;;;;8.20;99.90;;;;;;5047781;28;19932;-92
2023/12/10 08:33:09;;;;;;;;;;;8.30;99.90;;;;;;5045962;28;19931;-87
2023/12/10 08:35:35;;;;;;;;;;;7.10;99.90;;;;;;5038490;28;20346;-90
2023/12/10 08:38:00;;;;;;;;;;;8.30;99.90;;;;;;5036898;28;19921;-86
2023/12/10 08:40:26;;;;;;;;;;;8.30;99.90;;;;;;5037496;28;19983;-90
2023/12/10 08:42:51;;;;;;;;;;;8.30;99.90;;;;;;5036253;28;19924;-87
2023/12/10 08:45:17;;;;;;;;;;;8.30;99.90;;;;;;5022539;28;19920;-90
2023/12/10 08:47:43;;;;;;;;;;;8.30;99.90;;;;;;5031939;28;20596;-89
2023/12/10 08:50:09;;;;;;;;;;;8.20;99.90;;;;;;5009852;28;20069;-89
2023/12/10 08:52:35;;;;;;;;;;;8.20;99.90;;;;;;5039830;28;20517;-91
2023/12/10 08:55:01;;;;;;;;;;;8.20;99.90;;;;;;5057050;28;19921;-90
2023/12/10 08:57:27;;;;;;;;;;;8.20;99.90;;;;;;5036646;28;19920;-94
2023/12/10 09:00:00;;;;;;;;;;;8.20;99.90;;;;;;5023501;28;20261;-88
2023/12/10 09:02:26;;;;;;;;;;;8.20;99.90;;;;;;5055665;28;19958;-91
2023/12/10 09:04:51;;;;;;;;;;;8.20;99.90;;;;;;5040023;28;20092;-92
2023/12/10 09:07:17;;;;;;;;;;;8.40;99.90;;;;;;5026562;28;20035;-91
2023/12/10 09:09:43;;;;;;;;;;;8.20;99.90;;;;;;5015544;28;20028;-88
2023/12/10 09:12:08;;;;;;;;;;;8.10;99.90;;;;;;5041066;28;19982;-90
2023/12/10 09:14:36;;;;;;;;;;;8.30;99.90;;;;;;5037762;28;19925;-92
2023/12/10 09:17:04;;;;;;;;;;;8.10;99.90;;;;;;5048185;28;20040;-93
2023/12/10 09:19:32;;;;;;;;;;;8.10;99.90;;;;;;5037651;28;19947;-91
2023/12/10 09:34:54;;;;;;;;;;;8.10;99.90;;;;;;4936107;29;19982;-90
2023/12/10 09:37:41;;;;;;;;;;;9.10;99.90;;;;;;4921084;29;20017;-93
2023/12/10 09:40:44;;;;;;;;;;;9.20;99.90;;;;;;4920685;29;19938;-92
2023/12/10 09:43:10;;;;;;;;;;;7.10;99.90;;;;;;4919489;29;19926;-88
2023/12/10 09:45:35;;;;;;;;;;;8.00;99.90;;;;;;4981209;28;20551;-91
2023/12/10 09:48:02;;;;;;;;;;;8.10;99.90;;;;;;5027672;28;19921;-89
2023/12/10 09:50:32;;;;;;;;;;;7.90;99.90;;;;;;5022898;28;19920;-91
2023/12/10 09:53:00;;;;;;;;;;;8.10;99.90;;;;;;5005468;28;19928;-88
2023/12/10 09:55:26;;;;;;;;;;;7.60;99.90;;;;;;5018760;28;19932;-87
2023/12/10 09:57:54;;;;;;;;;;;8.10;99.90;;;;;;5011870;28;19928;-88
2023/12/10 10:00:21;;;;;;;;;;;8.10;99.90;;;;;;5030357;28;19920;-86
2023/12/10 10:02:46;;;;;;;;;;;8.10;99.90;;;;;;5011485;28;20318;-86
2023/12/10 10:05:12;;;;;;;;;;;8.20;99.90;;;;;;5017074;28;19921;-89
2023/12/10 10:07:38;;;;;;;;;;;8.10;99.90;;;;;;5023888;28;19928;-89
2023/12/10 10:10:05;;;;;;;;;;;8.20;99.90;;;;;;5016551;28;20453;-87
2023/12/10 10:12:33;;;;;;;;;;;8.20;99.90;;;;;;5025711;28;19971;-87
2023/12/10 10:14:59;;;;;;;;;;;8.00;99.90;;;;;;5024663;28;19935;-90
2023/12/10 10:17:28;;;;;;;;;;;8.10;99.90;;;;;;5044826;28;19928;-88
2023/12/10 10:19:54;;;;;;;;;;;8.10;99.90;;;;;;5025654;28;19928;-91
2023/12/10 10:22:23;;;;;;;;;;;8.10;99.90;;;;;;5032597;28;20407;-86
2023/12/10 10:24:51;;;;;;;;;;;8.10;99.90;;;;;;5028989;28;19931;-88
2023/12/10 10:27:16;;;;;;;;;;;8.10;99.90;;;;;;5066222;28;19930;-89
2023/12/10 10:29:42;;;;;;;;;;;8.10;99.90;;;;;;5026383;28;20342;-87
2023/12/10 10:32:10;;;;;;;;;;;8.10;99.90;;;;;;5028675;28;19925;-87
2023/12/10 10:34:35;;;;;;;;;;;8.10;99.90;;;;;;5048629;28;19930;-91
2023/12/10 10:37:01;;;;;;;;;;;8.10;99.90;;;;;;5028484;28;19929;-91
2023/12/10 10:39:29;;;;;;;;;;;8.20;99.90;;;;;;5031276;28;19947;-89
2023/12/10 10:41:54;;;;;;;;;;;8.10;99.90;;;;;;5028417;28;20715;-87
2023/12/10 10:44:20;;;;;;;;;;;8.10;99.90;;;;;;5010305;28;19952;-86
2023/12/10 10:46:46;;;;;;;;;;;8.20;99.90;;;;;;5010292;28;19924;-90
2023/12/10 10:49:12;;;;;;;;;;;8.10;99.90;;;;;;5011381;28;19920;-87
2023/12/10 10:51:37;;;;;;;;;;;8.10;99.90;;;;;;5045960;28;20007;-90
2023/12/10 10:54:04;;;;;;;;;;;8.20;99.90;;;;;;5033824;28;19920;-88
2023/12/10 10:56:30;;;;;;;;;;;8.20;99.90;;;;;;5025125;28;19924;-89
2023/12/10 10:58:56;;;;;;;;;;;8.10;99.90;;;;;;5033150;28;19924;-89
2023/12/10 11:01:41;;;;;;;;;;;8.20;99.90;;;;;;5036578;28;19928;-88
2023/12/10 11:04:10;;;;;;;;;;;8.20;99.90;;;;;;5032820;28;19978;-89
2023/12/10 11:06:36;;;;;;;;;;;8.20;99.90;;;;;;5043146;28;19928;-88
2023/12/10 11:09:02;;;;;;;;;;;8.30;99.90;;;;;;5031013;28;20356;-87
2023/12/10 11:11:27;;;;;;;;;;;8.30;99.90;;;;;;5037441;28;19943;-87
2023/12/10 11:13:54;;;;;;;;;;;8.30;99.90;;;;;;5015698;28;20362;-88
2023/12/10 11:16:21;;;;;;;;;;;8.30;99.90;;;;;;5053233;28;19981;-90
2023/12/10 11:18:55;;;;;;;;;;;8.30;99.90;;;;;;5047710;28;19920;-87
2023/12/10 11:21:21;;;;;;;;;;;8.30;99.90;;;;;;5031771;28;19935;-88
2023/12/10 11:23:47;;;;;;;;;;;8.20;99.90;;;;;;5034191;28;19933;-87
2023/12/10 11:26:13;;;;;;;;;;;8.20;99.90;;;;;;5016190;28;19921;-87
2023/12/10 11:28:39;;;;;;;;;;;8.20;99.90;;;;;;5027878;28;20295;-88
2023/12/10 11:31:05;;;;;;;;;;;8.10;99.90;;;;;;5022750;28;19928;-91
2023/12/10 11:33:31;;;;;;;;;;;8.20;99.90;;;;;;5034148;28;19920;-89
2023/12/10 11:35:57;;;;;;;;;;;8.30;99.90;;;;;;5029279;28;19921;-88
2023/12/10 11:38:23;;;;;;;;;;;8.40;99.90;;;;;;5051262;28;19935;-89
2023/12/10 11:40:49;;;;;;;;;;;8.40;99.90;;;;;;5021173;28;19924;-89
2023/12/10 11:43:14;;;;;;;;;;;8.40;99.90;;;;;;5049691;28;19925;-90
2023/12/10 11:45:40;;;;;;;;;;;8.20;99.90;;;;;;5017123;28;20284;-88
2023/12/10 11:48:06;;;;;;;;;;;8.40;99.90;;;;;;5020073;28;19928;-89
2023/12/10 11:50:32;;;;;;;;;;;8.30;99.90;;;;;;5032874;28;19921;-90
2023/12/10 11:52:58;;;;;;;;;;;9.10;99.90;;;;;;5030274;28;20012;-87
2023/12/10 11:55:24;;;;;;;;;;;8.30;99.90;;;;;;5019298;28;19928;-86
2023/12/10 11:57:49;;;;;;;;;;;8.30;99.90;;;;;;5019420;28;19924;-85
2023/12/10 12:00:15;;;;;;;;;;;8.30;99.90;;;;;;5049473;28;19920;-89
2023/12/10 12:02:42;;;;;;;;;;;8.40;99.90;;;;;;5033099;28;19943;-92
2023/12/10 12:05:09;;;;;;;;;;;8.40;99.90;;;;;;5038220;28;19921;-92
2023/12/10 12:07:35;;;;;;;;;;;8.40;99.90;;;;;;5029411;28;20380;-88
2023/12/10 12:10:01;;;;;;;;;;;8.40;99.90;;;;;;5037210;28;19977;-92
2023/12/10 12:12:27;;;;;;;;;;;8.40;99.90;;;;;;5045667;28;19921;-86
2023/12/10 12:14:53;;;;;;;;;;;8.40;99.90;;;;;;5031839;28;19927;-89
2023/12/10 12:17:19;;;;;;;;;;;8.40;99.90;;;;;;5050234;28;19975;-90
2023/12/10 12:19:45;;;;;;;;;;;8.40;99.90;;;;;;5035463;28;19924;-92
2023/12/10 12:22:11;;;;;;;;;;;8.40;99.90;;;;;;5031772;28;19928;-88
2023/12/10 12:24:39;;;;;;;;;;;8.40;99.90;;;;;;5034137;28;19928;-90
2023/12/10 12:27:08;;;;;;;;;;;8.40;99.90;;;;;;5045221;28;19925;-89
2023/12/10 12:29:36;;;;;;;;;;;8.40;99.90;;;;;;5035575;28;19921;-90
2023/12/10 12:32:03;;;;;;;;;;;8.40;99.90;;;;;;5023075;28;19929;-85
2023/12/10 12:34:28;;;;;;;;;;;8.40;99.90;;;;;;4986589;28;20314;-86
2023/12/10 12:36:54;;;;;;;;;;;8.40;99.90;;;;;;5001081;28;19932;-85
2023/12/10 12:39:20;;;;;;;;;;;8.30;99.90;;;;;;4994839;28;20037;-86
2023/12/10 12:41:47;;;;;;;;;;;8.30;99.90;;;;;;4998951;28;19936;-85
2023/12/10 12:44:13;;;;;;;;;;;8.30;99.90;;;;;;5013089;28;20036;-86
2023/12/10 12:46:40;;;;;;;;;;;8.80;99.90;;;;;;5002239;28;19925;-85
2023/12/10 12:49:09;;;;;;;;;;;8.30;99.90;;;;;;4994133;28;20343;-86
2023/12/10 12:51:37;;;;;;;;;;;8.40;99.90;;;;;;5019205;28;19925;-85
2023/12/10 12:54:03;;;;;;;;;;;8.40;99.90;;;;;;5014578;28;19921;-86
2023/12/10 12:56:29;;;;;;;;;;;8.40;99.90;;;;;;4997343;28;20009;-86
2023/12/10 12:58:55;;;;;;;;;;;8.40;99.90;;;;;;5001269;28;19921;-86
2023/12/10 13:01:20;;;;;;;;;;;8.40;99.90;;;;;;5022215;28;20384;-87
2023/12/10 13:03:46;;;;;;;;;;;8.40;99.90;;;;;;5012635;28;19933;-86
2023/12/10 13:06:13;;;;;;;;;;;8.40;99.90;;;;;;5026889;28;19929;-85
2023/12/10 13:08:39;;;;;;;;;;;8.40;99.90;;;;;;5012896;28;19931;-86
2023/12/10 13:11:04;;;;;;;;;;;8.40;99.90;;;;;;5005576;28;20008;-88
2023/12/10 13:13:30;;;;;;;;;;;8.40;99.90;;;;;;4988984;28;19971;-87
2023/12/10 13:15:57;;;;;;;;;;;8.40;99.90;;;;;;5026987;28;19925;-86
2023/12/10 13:18:22;;;;;;;;;;;8.40;99.90;;;;;;4992248;28;19927;-91
2023/12/10 13:20:48;;;;;;;;;;;8.40;99.90;;;;;;5016001;28;20011;-91
2023/12/10 13:23:14;;;;;;;;;;;8.40;99.90;;;;;;5014873;28;19929;-86
2023/12/10 13:25:42;;;;;;;;;;;8.30;99.90;;;;;;4997273;28;19924;-87
2023/12/10 13:28:09;;;;;;;;;;;8.30;99.90;;;;;;4991074;28;19967;-88
2023/12/10 13:30:35;;;;;;;;;;;8.20;99.90;;;;;;4993851;28;19967;-89
2023/12/10 13:33:02;;;;;;;;;;;8.20;99.90;;;;;;5026035;28;20357;-90
2023/12/10 13:35:30;;;;;;;;;;;7.70;99.90;;;;;;5050583;28;20316;-92
2023/12/10 13:45:20;;;;;;;;;;;8.70;99.90;;;;;;5007610;28;19936;-90
2023/12/10 13:58:24;;;;;;;;;;;8.20;99.90;;;;;;4836940;29;20228;-86
2023/12/10 14:00:49;;;;;;;;;;;8.00;99.90;;;;;;4824336;29;20014;-86
2023/12/10 14:03:15;;;;;;;;;;;8.00;99.90;;;;;;4868165;29;19931;-86
2023/12/10 14:05:42;;;;;;;;;;;8.40;99.90;;;;;;5002896;28;19963;-85
2023/12/10 14:08:08;;;;;;;;;;;8.00;99.90;;;;;;5066874;28;19920;-86
2023/12/10 14:10:33;;;;;;;;;;;8.00;99.90;;;;;;5052278;28;20445;-88
2023/12/10 14:12:59;;;;;;;;;;;8.00;99.90;;;;;;5034954;28;19924;-89
2023/12/10 14:15:25;;;;;;;;;;;8.00;99.90;;;;;;5036960;28;19991;-88
2023/12/10 14:17:50;;;;;;;;;;;8.00;99.90;;;;;;5033756;28;19921;-88
2023/12/10 14:20:16;;;;;;;;;;;7.90;99.90;;;;;;5048649;28;19931;-88
2023/12/10 14:22:42;;;;;;;;;;;7.90;99.90;;;;;;5065426;28;19924;-89
2023/12/10 14:25:08;;;;;;;;;;;8.10;99.90;;;;;;5035341;28;19927;-88
2023/12/10 14:27:34;;;;;;;;;;;8.00;99.90;;;;;;5051138;28;20389;-88
2023/12/10 14:29:59;;;;;;;;;;;7.80;99.90;;;;;;5047487;28;20283;-86
2023/12/10 14:32:25;;;;;;;;;;;7.90;99.90;;;;;;5057467;28;19957;-86
2023/12/10 14:34:51;;;;;;;;;;;7.80;99.90;;;;;;5028500;28;19928;-87
2023/12/10 14:37:16;;;;;;;;;;;7.90;99.90;;;;;;5033309;28;19991;-86
2023/12/10 14:39:42;;;;;;;;;;;7.80;99.90;;;;;;5034461;28;20288;-88
2023/12/10 14:42:08;;;;;;;;;;;7.80;99.90;;;;;;5043658;28;20372;-87
2023/12/10 14:44:34;;;;;;;;;;;7.80;99.90;;;;;;5048903;28;19978;-87
2023/12/10 14:47:00;;;;;;;;;;;7.80;99.90;;;;;;5048850;28;19920;-88
2023/12/10 14:49:25;;;;;;;;;;;7.80;99.90;;;;;;5034252;28;19921;-88
2023/12/10 14:51:51;;;;;;;;;;;7.70;99.90;;;;;;5026537;28;19928;-86
2023/12/10 14:54:17;;;;;;;;;;;7.70;99.90;;;;;;5045128;28;19947;-89
2023/12/10 14:56:42;;;;;;;;;;;7.70;99.90;;;;;;5062997;28;19928;-88